Time;durP1;ratioP1;P1;durP2;ratioP2;P2;SDS_P1;SDS_P2;PMS_P1;PMS_P2;Temp;Humidity;BMP_temperature;BMP_pressure;BME280_temperature;BME280_humidity;BME280_pressure;Samples;Min_cycle;Max_cycle;Signal;HPM_P1;HPM_P2
2021/05/22 04:01:43;;;;;;;1.50;0.90;;;9.00;96.30;;;;;;5406005;23;20521;-81
2021/05/22 04:04:08;;;;;;;3.23;1.03;;;8.90;96.30;;;;;;4992199;28;20479;-80
2021/05/22 04:06:34;;;;;;;3.33;1.20;;;8.80;96.30;;;;;;4991765;28;20660;-80
2021/05/22 04:08:59;;;;;;;3.90;1.33;;;8.70;96.30;;;;;;4993731;28;20180;-78
2021/05/22 04:11:25;;;;;;;4.53;0.90;;;8.70;96.30;;;;;;4995840;28;20194;-79
2021/05/22 04:13:50;;;;;;;2.30;0.80;;;8.70;96.30;;;;;;4995841;28;20700;-80
2021/05/22 04:16:16;;;;;;;0.90;0.70;;;8.60;96.30;;;;;;4995532;28;20177;-79
2021/05/22 04:18:41;;;;;;;2.37;0.90;;;8.60;96.30;;;;;;4995627;28;20174;-79
2021/05/22 04:21:07;;;;;;;2.20;0.83;;;8.60;96.30;;;;;;4987957;28;20571;-79
2021/05/22 04:23:33;;;;;;;1.23;0.70;;;8.60;96.30;;;;;;4990110;28;20247;-80
2021/05/22 04:25:58;;;;;;;1.77;0.70;;;8.60;96.30;;;;;;4995493;28;20287;-80
2021/05/22 04:28:24;;;;;;;1.30;0.70;;;8.70;96.30;;;;;;4994841;28;20176;-79
2021/05/22 04:30:49;;;;;;;1.77;0.80;;;8.70;96.30;;;;;;4995585;28;20198;-79
2021/05/22 04:33:15;;;;;;;2.00;1.00;;;8.80;96.30;;;;;;4995340;28;20162;-76
2021/05/22 04:35:40;;;;;;;3.47;1.00;;;8.80;96.30;;;;;;4995442;28;20174;-77
2021/05/22 04:38:06;;;;;;;3.70;1.07;;;8.90;96.30;;;;;;4993296;28;20224;-77
2021/05/22 04:40:32;;;;;;;3.13;1.13;;;8.90;96.30;;;;;;4995183;28;20193;-77
2021/05/22 04:42:57;;;;;;;3.23;2.07;;;8.90;96.30;;;;;;4993673;28;20178;-76
2021/05/22 04:45:23;;;;;;;0.97;0.70;;;8.90;96.30;;;;;;4995200;28;20173;-76
2021/05/22 04:47:48;;;;;;;2.33;1.10;;;8.90;96.30;;;;;;4994490;28;20359;-77
2021/05/22 04:50:14;;;;;;;1.40;0.70;;;9.00;96.30;;;;;;4994722;28;20174;-77
2021/05/22 04:52:39;;;;;;;2.03;0.90;;;9.10;96.30;;;;;;4994886;28;20678;-77
2021/05/22 04:55:06;;;;;;;1.93;0.80;;;9.10;96.30;;;;;;4994079;28;20833;-77
2021/05/22 04:57:32;;;;;;;2.20;0.87;;;9.10;96.30;;;;;;4994338;28;20174;-76
2021/05/22 04:59:58;;;;;;;1.37;0.70;;;8.90;96.30;;;;;;4994919;28;20415;-76
2021/05/22 05:02:23;;;;;;;1.10;0.80;;;8.60;96.30;;;;;;4994516;28;20205;-76
2021/05/22 05:04:49;;;;;;;1.57;0.80;;;8.40;96.30;;;;;;4994839;28;20216;-76
2021/05/22 05:07:15;;;;;;;1.73;0.90;;;8.30;96.30;;;;;;4994021;28;20241;-76
2021/05/22 05:09:40;;;;;;;1.67;0.80;;;8.30;96.30;;;;;;4994728;28;20571;-77
2021/05/22 05:12:07;;;;;;;1.93;0.80;;;8.30;96.30;;;;;;4994566;28;20192;-76
2021/05/22 05:14:33;;;;;;;1.37;0.70;;;8.20;96.30;;;;;;4993781;28;20568;-77
2021/05/22 05:16:59;;;;;;;1.87;0.80;;;8.00;96.30;;;;;;4993075;28;20444;-77
2021/05/22 05:19:28;;;;;;;1.83;0.63;;;8.00;96.30;;;;;;4991912;28;20458;-77
2021/05/22 05:21:55;;;;;;;3.63;0.70;;;7.90;96.30;;;;;;4994604;28;20435;-77
2021/05/22 05:24:21;;;;;;;1.00;0.70;;;7.80;96.30;;;;;;4994517;28;20467;-77
2021/05/22 05:26:47;;;;;;;1.07;0.50;;;7.90;96.30;;;;;;4992661;28;20468;-77
2021/05/22 05:29:12;;;;;;;1.10;0.60;;;7.90;96.30;;;;;;4985062;28;20421;-77
2021/05/22 05:31:37;;;;;;;1.40;0.60;;;7.90;96.30;;;;;;4992402;28;20190;-77
2021/05/22 05:34:04;;;;;;;1.20;0.70;;;8.00;96.30;;;;;;4994188;28;20632;-77
2021/05/22 05:36:30;;;;;;;2.50;0.60;;;8.20;96.30;;;;;;4981827;28;20712;-77
2021/05/22 05:38:55;;;;;;;1.33;0.60;;;8.50;96.30;;;;;;4986661;28;20507;-77
2021/05/22 05:41:21;;;;;;;1.00;0.60;;;8.70;96.30;;;;;;4994010;28;20215;-77
2021/05/22 05:43:46;;;;;;;1.43;0.70;;;8.90;96.30;;;;;;4991854;28;20174;-77
2021/05/22 05:46:12;;;;;;;4.10;0.70;;;9.10;96.30;;;;;;4974406;28;20261;-77
2021/05/22 05:48:37;;;;;;;3.67;1.00;;;9.10;96.30;;;;;;4991867;28;20177;-77
2021/05/22 05:51:03;;;;;;;1.77;0.80;;;9.10;96.30;;;;;;4994278;28;20248;-77
2021/05/22 05:53:28;;;;;;;3.10;0.80;;;9.00;96.30;;;;;;4993459;28;20166;-77
2021/05/22 05:55:54;;;;;;;1.73;1.10;;;8.90;96.30;;;;;;4991484;28;20711;-77
2021/05/22 05:58:20;;;;;;;4.23;1.10;;;9.00;96.30;;;;;;4990843;28;20253;-77
2021/05/22 06:00:45;;;;;;;2.17;0.70;;;9.10;96.30;;;;;;4989843;28;20214;-77
2021/05/22 06:03:11;;;;;;;5.17;0.83;;;9.70;96.30;;;;;;4991150;28;20183;-77
2021/05/22 06:05:36;;;;;;;3.47;0.70;;;10.90;96.30;;;;;;4990759;28;20186;-77
2021/05/22 06:08:02;;;;;;;3.73;1.00;;;11.30;96.30;;;;;;4990662;28;20617;-77
2021/05/22 06:10:27;;;;;;;2.10;0.70;;;12.10;96.30;;;;;;4989367;28;20177;-77
2021/05/22 06:12:55;;;;;;;1.40;0.70;;;13.50;96.30;;;;;;4990203;28;20209;-78
2021/05/22 06:15:22;;;;;;;1.63;0.60;;;14.60;96.30;;;;;;4988812;28;20185;-77
2021/05/22 06:17:51;;;;;;;1.27;0.60;;;15.60;93.60;;;;;;4990666;28;20797;-77
2021/05/22 06:20:17;;;;;;;3.93;0.80;;;15.80;90.60;;;;;;4992237;28;20421;-77
2021/05/22 06:22:42;;;;;;;3.20;0.70;;;16.40;91.80;;;;;;4992145;28;20812;-76
2021/05/22 06:25:11;;;;;;;1.67;0.70;;;17.20;89.60;;;;;;4992580;28;20546;-76
2021/05/22 06:27:37;;;;;;;2.10;0.80;;;17.20;83.60;;;;;;4991384;28;20220;-77
2021/05/22 06:30:04;;;;;;;2.57;1.57;;;17.80;84.10;;;;;;4992359;28;20499;-77
2021/05/22 06:32:30;;;;;;;2.50;1.10;;;17.60;85.20;;;;;;4992065;28;20277;-78
2021/05/22 06:34:55;;;;;;;2.60;0.80;;;18.10;81.60;;;;;;4991435;28;20504;-77
2021/05/22 06:37:23;;;;;;;18.07;16.47;;;18.90;82.60;;;;;;4991626;28;20518;-78
2021/05/22 06:39:48;;;;;;;1.93;0.93;;;17.70;79.70;;;;;;4992591;28;20181;-77
2021/05/22 06:42:14;;;;;;;2.77;0.97;;;17.00;86.50;;;;;;4992453;28;20436;-77
2021/05/22 06:44:45;;;;;;;3.23;1.27;;;15.80;84.90;;;;;;4994104;28;20189;-77
2021/05/22 06:47:10;;;;;;;1.50;0.80;;;14.80;89.30;;;;;;4991832;28;20205;-77
2021/05/22 06:49:36;;;;;;;1.30;0.80;;;14.00;91.40;;;;;;4992348;28;20479;-77
2021/05/22 06:52:02;;;;;;;3.13;1.20;;;14.70;94.60;;;;;;4991568;28;20205;-77
2021/05/22 06:54:31;;;;;;;3.10;0.80;;;16.00;91.50;;;;;;4992020;28;20604;-77
2021/05/22 06:56:56;;;;;;;1.63;0.77;;;17.70;83.70;;;;;;4975916;28;20421;-77
2021/05/22 06:59:22;;;;;;;2.30;0.87;;;18.50;83.10;;;;;;4984190;28;20423;-77
2021/05/22 07:01:48;;;;;;;2.77;0.80;;;18.30;81.70;;;;;;4992508;28;20309;-77
2021/05/22 07:04:13;;;;;;;2.53;1.00;;;17.80;80.60;;;;;;4977519;28;20591;-77
2021/05/22 07:06:39;;;;;;;5.03;0.97;;;17.70;82.90;;;;;;4971232;28;20293;-77
2021/05/22 07:09:05;;;;;;;3.97;1.27;;;18.00;83.50;;;;;;4973205;28;20179;-77
2021/05/22 07:11:30;;;;;;;3.27;0.90;;;19.40;81.50;;;;;;4973111;28;20253;-78
2021/05/22 07:13:56;;;;;;;2.47;0.80;;;18.80;78.90;;;;;;4972869;28;20178;-77
2021/05/22 07:16:21;;;;;;;1.67;0.63;;;18.80;74.20;;;;;;4986224;28;20233;-77
2021/05/22 07:18:47;;;;;;;1.87;0.70;;;17.20;79.50;;;;;;4992528;28;20185;-77
2021/05/22 07:21:13;;;;;;;2.70;0.80;;;17.80;78.40;;;;;;4992288;28;20756;-77
2021/05/22 07:23:38;;;;;;;2.63;0.90;;;18.00;80.10;;;;;;4992306;28;20767;-77
2021/05/22 07:26:04;;;;;;;2.83;0.93;;;18.70;80.80;;;;;;4992041;28;20464;-78
2021/05/22 07:28:33;;;;;;;3.83;1.00;;;18.80;77.30;;;;;;4991672;28;20630;-77
2021/05/22 07:31:00;;;;;;;2.13;0.87;;;17.60;82.20;;;;;;4992297;28;20879;-77
2021/05/22 07:33:31;;;;;;;2.60;0.83;;;16.70;82.00;;;;;;4991953;28;20416;-77
2021/05/22 07:35:57;;;;;;;2.70;0.70;;;16.50;84.20;;;;;;4990184;28;20913;-77
2021/05/22 07:38:23;;;;;;;2.23;1.53;;;15.50;87.00;;;;;;4991701;28;20412;-77
2021/05/22 07:40:48;;;;;;;1.30;0.60;;;15.70;84.50;;;;;;4991772;28;20959;-77
2021/05/22 07:43:14;;;;;;;3.53;0.73;;;16.50;85.60;;;;;;4993699;28;20248;-78
2021/05/22 07:45:40;;;;;;;3.27;1.30;;;17.70;84.80;;;;;;4993145;28;20184;-77
2021/05/22 07:48:06;;;;;;;2.50;0.87;;;18.10;83.80;;;;;;4995519;28;20440;-78
2021/05/22 07:50:32;;;;;;;3.87;0.90;;;17.90;78.20;;;;;;4997079;28;20448;-78
2021/05/22 07:52:58;;;;;;;5.67;0.90;;;17.20;80.50;;;;;;4995220;28;20344;-78
2021/05/22 07:55:24;;;;;;;3.67;0.80;;;17.10;82.30;;;;;;4989949;28;20186;-78
2021/05/22 07:57:49;;;;;;;2.20;0.90;;;17.60;80.70;;;;;;4992529;28;20479;-78
2021/05/22 08:00:16;;;;;;;2.17;0.73;;;16.00;84.30;;;;;;4984378;28;20186;-78
2021/05/22 08:02:44;;;;;;;1.63;0.70;;;15.00;87.90;;;;;;4976019;28;20185;-78
2021/05/22 08:05:11;;;;;;;1.63;0.70;;;15.20;84.30;;;;;;4976281;28;20886;-78
2021/05/22 08:07:37;;;;;;;4.70;0.87;;;16.40;87.70;;;;;;4976748;28;20472;-78
2021/05/22 08:10:04;;;;;;;2.83;0.70;;;16.20;83.00;;;;;;4990264;28;20421;-78
2021/05/22 08:12:30;;;;;;;8.20;0.80;;;17.00;82.50;;;;;;4975893;28;20194;-78
2021/05/22 08:14:55;;;;;;;2.30;1.17;;;17.50;83.40;;;;;;4985989;28;20975;-78
2021/05/22 08:17:22;;;;;;;3.40;0.90;;;17.00;81.80;;;;;;4994599;28;20559;-78
2021/05/22 08:19:47;;;;;;;6.70;1.13;;;16.60;80.90;;;;;;4993607;28;20209;-78
2021/05/22 08:22:13;;;;;;;6.57;1.07;;;16.80;80.70;;;;;;4994059;28;20535;-77
2021/05/22 08:24:38;;;;;;;2.73;0.90;;;15.90;83.80;;;;;;4995154;28;20220;-78
2021/05/22 08:27:04;;;;;;;3.17;0.90;;;15.90;78.70;;;;;;4994294;28;20205;-78
2021/05/22 08:29:30;;;;;;;8.47;0.80;;;16.10;83.10;;;;;;4995050;28;20196;-77
2021/05/22 08:31:55;;;;;;;9.20;1.33;;;15.60;82.20;;;;;;4994085;28;20305;-77
2021/05/22 08:34:21;;;;;;;5.00;1.40;;;15.70;83.60;;;;;;4994865;28;20188;-77
2021/05/22 08:36:46;;;;;;;3.20;1.03;;;15.20;81.50;;;;;;4992487;28;20190;-77
2021/05/22 08:39:12;;;;;;;5.33;0.80;;;15.80;83.80;;;;;;4994699;28;20189;-78
2021/05/22 08:41:38;;;;;;;13.10;0.77;;;16.20;82.80;;;;;;4994277;28;20200;-77
2021/05/22 08:44:04;;;;;;;3.50;1.10;;;17.20;81.60;;;;;;4992994;28;20182;-78
2021/05/22 08:46:31;;;;;;;2.50;0.90;;;17.20;77.50;;;;;;4994330;28;20527;-77
2021/05/22 08:48:58;;;;;;;5.00;1.43;;;17.30;76.50;;;;;;4994619;28;20409;-77
2021/05/22 08:51:24;;;;;;;2.60;0.97;;;17.40;75.60;;;;;;4994548;28;20436;-78
2021/05/22 08:53:50;;;;;;;3.27;1.03;;;17.50;79.00;;;;;;4998251;28;20405;-77
2021/05/22 08:56:16;;;;;;;3.63;1.00;;;16.80;73.10;;;;;;4993955;28;20971;-77
2021/05/22 08:58:42;;;;;;;2.83;0.90;;;17.20;74.60;;;;;;4994200;28;20185;-77
2021/05/22 09:01:08;;;;;;;3.27;0.80;;;17.30;76.20;;;;;;4993331;28;20456;-77
2021/05/22 09:03:33;;;;;;;4.50;1.10;;;17.00;73.50;;;;;;4994255;28;20190;-77
2021/05/22 09:05:59;;;;;;;3.27;0.93;;;16.80;76.60;;;;;;4993861;28;20174;-77
2021/05/22 09:08:25;;;;;;;2.90;0.80;;;17.20;76.10;;;;;;4993818;28;20166;-77
2021/05/22 09:10:52;;;;;;;3.00;0.90;;;17.20;75.30;;;;;;4994123;28;20198;-77
2021/05/22 09:13:27;;;;;;;6.33;1.67;;;17.30;71.80;;;;;;4994500;28;20189;-77
2021/05/22 09:15:58;;;;;;;1.77;0.73;;;16.90;74.60;;;;;;4993963;28;20440;-77
2021/05/22 09:18:25;;;;;;;1.83;0.83;;;16.70;77.90;;;;;;4993508;28;20492;-77
2021/05/22 09:20:54;;;;;;;1.43;0.67;;;17.00;71.60;;;;;;4994417;28;20449;-77
2021/05/22 09:23:21;;;;;;;3.03;0.80;;;16.60;74.70;;;;;;4994122;28;20483;-77
2021/05/22 09:25:52;;;;;;;3.33;0.87;;;16.70;76.90;;;;;;4993187;28;20417;-77
2021/05/22 09:28:27;;;;;;;4.00;0.90;;;16.50;77.10;;;;;;4993748;28;20495;-77
2021/05/22 09:30:54;;;;;;;1.57;1.07;;;15.50;76.90;;;;;;4994873;28;20424;-79
2021/05/22 09:33:22;;;;;;;3.30;1.03;;;14.80;78.40;;;;;;4989233;28;20521;-77
2021/05/22 09:35:52;;;;;;;4.20;1.03;;;15.30;75.80;;;;;;4974522;28;20410;-77
2021/05/22 09:38:18;;;;;;;2.23;1.27;;;14.70;78.20;;;;;;4973695;28;20420;-77
2021/05/22 09:40:44;;;;;;;1.40;0.90;;;15.30;75.20;;;;;;4974320;28;20505;-77
2021/05/22 09:43:10;;;;;;;1.90;0.80;;;16.10;73.80;;;;;;4973389;28;20178;-77
2021/05/22 09:45:41;;;;;;;3.70;0.90;;;16.50;70.90;;;;;;4974759;28;20480;-76
2021/05/22 09:48:16;;;;;;;4.27;0.93;;;17.60;78.50;;;;;;4973088;28;20465;-75
2021/05/22 09:50:46;;;;;;;3.10;0.73;;;17.30;71.80;;;;;;4989766;28;20463;-75
2021/05/22 09:53:35;;;;;;;1.40;0.70;;;18.00;73.50;;;;;;4986981;28;20451;-75
2021/05/22 09:56:10;;;;;;;4.63;1.10;;;16.40;75.20;;;;;;4983343;28;20402;-75
2021/05/22 09:58:37;;;;;;;1.40;0.80;;;16.50;79.30;;;;;;4979629;28;20453;-75
2021/05/22 10:01:03;;;;;;;6.00;0.73;;;16.70;77.20;;;;;;4991371;28;20551;-74
2021/05/22 10:03:29;;;;;;;1.40;0.80;;;17.20;72.40;;;;;;4975702;28;20895;-77
2021/05/22 10:05:55;;;;;;;2.73;0.90;;;16.10;73.90;;;;;;4992096;28;20452;-77
2021/05/22 10:08:21;;;;;;;6.10;1.13;;;15.00;77.90;;;;;;4990460;28;20205;-75
2021/05/22 10:10:49;;;;;;;4.17;1.40;;;14.80;80.60;;;;;;4989053;28;20209;-77
2021/05/22 10:13:19;;;;;;;1.57;0.80;;;15.60;79.70;;;;;;4974014;28;20689;-77
2021/05/22 10:15:47;;;;;;;3.83;1.10;;;15.40;82.90;;;;;;4973904;28;20500;-77
2021/05/22 10:18:14;;;;;;;2.57;1.20;;;15.50;81.50;;;;;;4985769;28;20428;-77
2021/05/22 10:20:40;;;;;;;2.73;1.10;;;15.80;79.60;;;;;;4982366;28;20818;-76
2021/05/22 10:23:06;;;;;;;2.20;1.10;;;16.00;77.10;;;;;;4973528;28;20501;-77
2021/05/22 10:25:32;;;;;;;1.53;0.90;;;16.10;77.60;;;;;;4979679;28;20246;-77
2021/05/22 10:27:59;;;;;;;1.20;0.60;;;15.20;76.30;;;;;;4990903;28;21003;-77
2021/05/22 10:30:25;;;;;;;2.10;0.80;;;15.50;81.30;;;;;;4992740;28;20181;-77
2021/05/22 10:32:58;;;;;;;4.50;1.00;;;16.00;74.30;;;;;;4976506;28;20418;-77
2021/05/22 10:35:25;;;;;;;1.47;0.73;;;15.00;76.50;;;;;;4986793;28;20496;-77
2021/05/22 10:37:52;;;;;;;2.03;0.90;;;15.10;72.90;;;;;;4987244;28;20422;-77
2021/05/22 10:40:39;;;;;;;2.40;0.80;;;16.00;80.20;;;;;;4988240;28;20420;-77
2021/05/22 10:43:04;;;;;;;2.47;0.83;;;16.80;77.90;;;;;;4987966;28;20575;-79
2021/05/22 10:45:38;;;;;;;7.03;1.23;;;15.90;75.20;;;;;;4983302;28;20500;-78
2021/05/22 10:48:06;;;;;;;2.30;0.70;;;16.40;78.90;;;;;;4986191;28;20197;-78
2021/05/22 10:50:47;;;;;;;1.70;0.93;;;17.10;75.50;;;;;;4990434;28;20409;-78
2021/05/22 10:53:36;;;;;;;5.73;0.90;;;17.90;72.20;;;;;;4990598;28;20421;-78
2021/05/22 10:56:09;;;;;;;3.33;0.90;;;17.30;75.50;;;;;;4982313;28;20475;-78
2021/05/22 10:58:37;;;;;;;2.33;0.80;;;16.60;71.50;;;;;;4987403;28;20421;-78
2021/05/22 11:01:25;;;;;;;6.60;1.10;;;16.20;75.90;;;;;;4980772;28;20468;-78
2021/05/22 11:04:21;;;;;;;3.50;0.83;;;16.70;74.20;;;;;;4988470;28;20409;-78
2021/05/22 11:06:50;;;;;;;1.90;0.67;;;17.20;75.60;;;;;;4987862;28;20464;-78
2021/05/22 11:09:28;;;;;;;2.40;1.10;;;16.90;69.90;;;;;;4972568;28;20752;-78
2021/05/22 11:11:55;;;;;;;1.60;0.90;;;17.20;74.00;;;;;;4971745;28;20457;-77
2021/05/22 11:14:44;;;;;;;2.87;0.87;;;17.20;68.40;;;;;;4979096;28;20416;-76
2021/05/22 11:17:28;;;;;;;4.37;1.37;;;16.70;71.10;;;;;;4973571;28;20410;-77
2021/05/22 11:19:57;;;;;;;3.57;1.20;;;16.00;73.60;;;;;;4978861;28;20412;-77
2021/05/22 11:22:23;;;;;;;1.97;0.83;;;15.40;73.10;;;;;;4986336;28;20953;-77
2021/05/22 11:25:08;;;;;;;2.83;0.90;;;15.40;74.70;;;;;;4992722;28;20423;-78
2021/05/22 11:27:46;;;;;;;2.33;0.90;;;15.50;73.10;;;;;;4989597;28;20452;-77
2021/05/22 11:30:13;;;;;;;2.53;1.00;;;15.10;76.50;;;;;;4983510;28;20505;-75
2021/05/22 11:33:02;;;;;;;3.27;0.70;;;15.40;73.70;;;;;;4981381;28;20405;-80
2021/05/22 11:35:28;;;;;;;1.90;0.83;;;15.40;72.90;;;;;;4990759;28;20821;-78
2021/05/22 11:37:55;;;;;;;3.07;0.80;;;15.30;71.90;;;;;;4985557;28;20410;-78
2021/05/22 11:40:39;;;;;;;9.47;1.10;;;15.40;72.90;;;;;;4976756;28;20178;-78
2021/05/22 11:45:40;;;;;;;3.33;0.90;;;15.00;75.70;;;;;;4976585;28;20448;-78
2021/05/22 11:48:32;;;;;;;2.80;0.80;;;14.70;75.00;;;;;;4977689;28;20491;-78
2021/05/22 11:50:58;;;;;;;2.40;0.70;;;14.90;74.00;;;;;;4994960;28;20440;-78
2021/05/22 11:53:26;;;;;;;4.30;0.90;;;15.20;74.50;;;;;;4982055;28;20406;-78
2021/05/22 11:55:58;;;;;;;9.33;1.20;;;14.80;75.10;;;;;;4976481;28;20178;-77
2021/05/22 11:58:24;;;;;;;1.67;0.80;;;14.60;74.30;;;;;;4974310;28;20424;-77
2021/05/22 12:00:50;;;;;;;1.97;0.63;;;14.20;75.80;;;;;;4992690;28;20452;-77
2021/05/22 12:03:27;;;;;;;4.10;0.80;;;14.20;77.30;;;;;;4988016;28;20546;-77
2021/05/22 12:05:54;;;;;;;2.37;0.77;;;14.30;77.60;;;;;;5018621;23;20553;-77
2021/05/22 12:08:23;;;;;;;1.37;0.83;;;14.40;75.80;;;;;;5015903;28;20447;-77
2021/05/22 12:10:49;;;;;;;1.40;0.70;;;14.40;76.80;;;;;;5028998;28;20814;-77
2021/05/22 12:13:14;;;;;;;2.37;0.80;;;14.30;76.80;;;;;;5031406;28;20410;-77
2021/05/22 12:15:42;;;;;;;2.00;0.90;;;14.00;75.10;;;;;;5028198;28;20189;-77
2021/05/22 12:18:08;;;;;;;1.47;0.70;;;14.30;77.60;;;;;;5002787;28;20193;-77
2021/05/22 12:20:54;;;;;;;6.13;0.97;;;14.70;76.50;;;;;;5011713;28;20941;-77
2021/05/22 12:23:27;;;;;;;2.07;0.87;;;15.10;77.40;;;;;;5012992;28;20399;-77
2021/05/22 12:25:54;;;;;;;1.77;0.80;;;14.80;76.10;;;;;;5012445;28;20427;-77
2021/05/22 12:28:22;;;;;;;3.03;0.90;;;14.90;75.90;;;;;;5012926;28;20879;-77
2021/05/22 12:30:50;;;;;;;4.00;0.97;;;15.40;71.40;;;;;;5014949;28;20412;-77
2021/05/22 12:33:16;;;;;;;3.03;0.80;;;16.00;75.90;;;;;;5014203;28;20446;-77
2021/05/22 12:35:43;;;;;;;5.73;1.10;;;15.70;74.90;;;;;;5014849;28;20432;-77
2021/05/22 12:38:09;;;;;;;2.50;1.10;;;15.10;75.00;;;;;;5012283;28;20995;-77
2021/05/22 12:40:50;;;;;;;3.60;0.80;;;14.60;75.90;;;;;;4995345;28;20496;-77
2021/05/22 12:43:16;;;;;;;3.83;0.93;;;14.30;76.50;;;;;;5008620;28;20184;-76
2021/05/22 12:45:44;;;;;;;2.80;0.90;;;14.30;78.00;;;;;;5014234;28;20443;-77
2021/05/22 12:48:24;;;;;;;4.43;1.07;;;14.20;76.40;;;;;;4998052;28;20452;-76
2021/05/22 12:50:50;;;;;;;2.33;0.80;;;14.20;77.70;;;;;;4996465;28;20420;-75
2021/05/22 12:53:28;;;;;;;2.80;0.80;;;14.90;80.00;;;;;;5001373;28;20508;-76
2021/05/22 12:56:02;;;;;;;2.27;0.90;;;15.50;77.20;;;;;;5014099;28;20530;-77
2021/05/22 12:58:28;;;;;;;2.97;0.97;;;15.60;72.00;;;;;;4994192;28;20842;-76
2021/05/22 13:00:55;;;;;;;2.03;0.90;;;15.10;73.70;;;;;;5001309;28;20408;-76
2021/05/22 13:03:38;;;;;;;2.43;1.00;;;15.30;73.60;;;;;;5013124;28;20538;-76
2021/05/22 13:06:03;;;;;;;4.80;1.00;;;15.70;76.20;;;;;;5012500;28;20443;-77
2021/05/22 13:08:29;;;;;;;3.80;1.10;;;15.20;73.50;;;;;;4993210;28;20466;-78
2021/05/22 13:11:10;;;;;;;1.23;0.80;;;14.90;74.40;;;;;;5002273;28;20272;-76
2021/05/22 13:13:36;;;;;;;2.00;0.67;;;14.80;74.90;;;;;;5013721;28;20164;-76
2021/05/22 13:16:09;;;;;;;6.00;0.90;;;14.90;73.20;;;;;;5008280;28;20441;-76
2021/05/22 13:18:38;;;;;;;2.43;1.00;;;14.70;76.10;;;;;;4993109;28;20178;-76
2021/05/22 13:21:10;;;;;;;8.83;1.10;;;14.60;74.70;;;;;;5001552;28;20435;-75
2021/05/22 13:23:42;;;;;;;4.10;0.93;;;14.70;74.20;;;;;;5004986;28;20978;-75
2021/05/22 13:26:27;;;;;;;3.77;0.80;;;14.80;73.80;;;;;;5013034;28;20919;-76
2021/05/22 13:28:54;;;;;;;9.00;1.10;;;15.30;76.50;;;;;;5005964;28;21031;-76
2021/05/22 13:31:28;;;;;;;3.57;1.10;;;15.10;73.90;;;;;;5012308;28;20419;-76
2021/05/22 13:34:05;;;;;;;5.50;1.10;;;14.80;74.40;;;;;;5013485;28;20399;-76
2021/05/22 13:36:30;;;;;;;4.87;1.10;;;14.60;76.10;;;;;;5000897;28;20439;-76
2021/05/22 13:38:56;;;;;;;2.33;1.10;;;14.80;74.60;;;;;;4997595;28;20499;-77
2021/05/22 13:41:36;;;;;;;4.20;0.87;;;14.60;71.70;;;;;;5011623;28;20249;-77
2021/05/22 13:44:04;;;;;;;2.70;0.93;;;14.80;78.70;;;;;;5001829;28;20212;-77
2021/05/22 13:46:31;;;;;;;2.07;1.00;;;15.20;76.10;;;;;;5011188;28;20463;-77
2021/05/22 13:48:56;;;;;;;4.43;0.77;;;15.30;74.90;;;;;;5009186;28;20443;-77
2021/05/22 13:51:25;;;;;;;2.90;1.10;;;15.00;76.60;;;;;;5005298;28;20416;-76
2021/05/22 13:53:51;;;;;;;6.83;0.93;;;14.90;74.10;;;;;;5013503;28;20698;-77
2021/05/22 13:56:18;;;;;;;1.30;0.70;;;15.00;76.40;;;;;;5012724;28;21211;-79
2021/05/22 13:58:44;;;;;;;2.27;0.70;;;15.10;76.30;;;;;;5002193;28;20180;-77
2021/05/22 14:01:09;;;;;;;7.33;0.90;;;15.50;73.50;;;;;;5001026;28;20516;-76
2021/05/22 14:03:39;;;;;;;3.50;0.97;;;15.40;73.50;;;;;;5004552;28;20269;-77
2021/05/22 14:06:05;;;;;;;2.17;0.70;;;14.80;76.30;;;;;;5005095;28;20288;-77
2021/05/22 14:08:30;;;;;;;5.00;1.10;;;14.40;76.30;;;;;;4992894;28;20516;-77
2021/05/22 14:10:56;;;;;;;2.10;0.70;;;14.10;77.20;;;;;;4992144;28;20181;-77
2021/05/22 14:13:21;;;;;;;2.63;1.00;;;13.80;76.10;;;;;;5010193;28;20598;-77
2021/05/22 14:15:47;;;;;;;2.33;0.80;;;13.50;79.50;;;;;;5012613;28;20200;-77
2021/05/22 14:18:12;;;;;;;2.30;0.83;;;13.10;82.80;;;;;;5007584;28;20177;-77
2021/05/22 14:20:38;;;;;;;2.40;0.77;;;13.20;84.80;;;;;;5004025;28;20715;-77
2021/05/22 14:23:03;;;;;;;3.43;0.90;;;13.30;85.50;;;;;;4995967;28;20212;-77
2021/05/22 14:25:29;;;;;;;6.00;1.20;;;13.50;82.70;;;;;;4998718;28;20555;-77
2021/05/22 14:27:55;;;;;;;2.77;1.20;;;13.80;81.70;;;;;;4992924;28;20694;-78
2021/05/22 14:30:21;;;;;;;3.20;0.90;;;14.40;81.60;;;;;;5002607;28;20203;-77
2021/05/22 14:32:47;;;;;;;1.77;0.90;;;15.00;78.70;;;;;;5000208;28;20478;-77
2021/05/22 14:35:17;;;;;;;3.60;0.70;;;15.30;79.10;;;;;;5007874;28;20943;-77
2021/05/22 14:37:43;;;;;;;3.20;1.00;;;15.30;78.80;;;;;;4997609;28;20174;-75
2021/05/22 14:40:10;;;;;;;1.77;0.80;;;14.80;78.80;;;;;;5002988;28;20419;-76
2021/05/22 14:42:36;;;;;;;2.67;0.70;;;14.30;76.90;;;;;;4998910;28;20549;-79
2021/05/22 14:45:06;;;;;;;1.80;0.80;;;14.00;77.40;;;;;;5000396;28;20411;-78
2021/05/22 14:47:32;;;;;;;2.23;0.83;;;13.80;77.60;;;;;;5002796;28;20197;-77
2021/05/22 14:49:57;;;;;;;2.93;0.97;;;13.50;79.10;;;;;;4998905;28;20412;-76
2021/05/22 14:52:23;;;;;;;3.27;0.73;;;13.20;80.80;;;;;;4998196;28;20582;-75
2021/05/22 14:54:48;;;;;;;4.13;1.00;;;13.10;82.30;;;;;;5000549;28;20185;-76
2021/05/22 14:57:14;;;;;;;5.03;1.10;;;13.30;84.70;;;;;;5000104;28;20293;-77
2021/05/22 14:59:39;;;;;;;1.67;0.70;;;13.90;86.80;;;;;;4992962;28;20228;-77
2021/05/22 15:02:05;;;;;;;1.83;0.70;;;14.60;83.00;;;;;;4993569;28;20181;-78
2021/05/22 15:04:31;;;;;;;3.17;0.90;;;15.10;84.40;;;;;;5000651;28;20177;-77
2021/05/22 15:06:56;;;;;;;1.83;0.90;;;15.50;82.30;;;;;;5004317;28;20259;-77
2021/05/22 15:09:22;;;;;;;2.30;0.90;;;16.00;81.10;;;;;;4996538;28;20251;-77
2021/05/22 15:11:47;;;;;;;1.73;0.80;;;15.90;75.50;;;;;;5000968;28;20706;-77
2021/05/22 15:14:13;;;;;;;3.90;0.80;;;15.70;76.60;;;;;;5008175;28;20185;-77
2021/05/22 15:16:38;;;;;;;1.60;0.87;;;15.50;74.80;;;;;;5011524;28;20200;-77
2021/05/22 15:19:07;;;;;;;5.13;0.83;;;15.00;76.00;;;;;;5006648;28;20637;-77
2021/05/22 15:21:33;;;;;;;2.23;0.93;;;14.70;82.20;;;;;;5012601;28;20232;-77
2021/05/22 15:23:58;;;;;;;2.53;1.03;;;14.50;79.40;;;;;;5011688;28;20912;-78
2021/05/22 15:26:25;;;;;;;4.97;0.90;;;14.40;79.40;;;;;;5007591;28;20311;-77
2021/05/22 15:28:50;;;;;;;3.93;1.10;;;14.10;80.70;;;;;;4995624;28;20254;-77
2021/05/22 15:31:16;;;;;;;2.33;0.80;;;14.00;80.50;;;;;;5010379;28;21015;-77
2021/05/22 15:33:42;;;;;;;2.80;0.90;;;14.10;79.70;;;;;;4993101;28;20189;-77
2021/05/22 15:36:09;;;;;;;6.00;1.40;;;14.00;78.50;;;;;;4994404;28;20194;-78
2021/05/22 15:38:39;;;;;;;4.33;1.00;;;14.60;83.30;;;;;;5010511;28;20416;-77
2021/05/22 15:41:07;;;;;;;6.20;1.50;;;15.20;82.10;;;;;;5005542;28;20420;-77
2021/05/22 15:43:38;;;;;;;3.53;1.07;;;15.40;79.40;;;;;;4996825;28;20444;-77
2021/05/22 15:46:04;;;;;;;3.30;0.90;;;15.60;76.80;;;;;;5011199;28;20840;-78
2021/05/22 15:58:53;;;;;;;2.90;0.70;;;14.20;80.00;;;;;;4994835;28;20416;-77
2021/05/22 16:04:08;;;;;;;2.83;0.87;;;14.20;80.90;;;;;;5013630;28;20440;-78
2021/05/22 16:06:35;;;;;;;6.90;1.10;;;14.20;80.00;;;;;;5011857;28;20209;-77
2021/05/22 16:09:01;;;;;;;4.33;0.90;;;14.30;77.60;;;;;;5008360;28;20470;-77
2021/05/22 16:11:27;;;;;;;2.50;0.70;;;14.40;81.60;;;;;;4999055;28;20433;-78
2021/05/22 16:13:53;;;;;;;5.27;1.07;;;14.60;80.70;;;;;;4997937;28;20439;-77
2021/05/22 16:16:19;;;;;;;2.80;0.90;;;14.80;78.10;;;;;;4998267;28;20733;-77
2021/05/22 16:18:44;;;;;;;5.67;0.80;;;14.70;76.20;;;;;;4998677;28;20504;-77
2021/05/22 16:21:11;;;;;;;4.53;0.90;;;14.60;79.00;;;;;;4999515;28;20228;-77
2021/05/22 16:23:36;;;;;;;3.13;0.83;;;14.60;78.80;;;;;;5006178;28;20259;-77
2021/05/22 16:26:02;;;;;;;4.10;1.17;;;14.60;79.30;;;;;;4995379;28;20498;-77
2021/05/22 16:28:28;;;;;;;4.20;0.90;;;15.10;76.10;;;;;;5007406;28;20185;-77
2021/05/22 16:30:53;;;;;;;1.83;0.80;;;14.80;74.10;;;;;;5014785;28;20181;-77
2021/05/22 16:33:19;;;;;;;2.20;0.70;;;14.50;78.30;;;;;;5006821;28;20188;-77
2021/05/22 16:35:45;;;;;;;4.87;1.00;;;14.20;78.00;;;;;;5006044;28;20289;-77
2021/05/22 16:38:10;;;;;;;3.37;0.90;;;14.00;78.20;;;;;;4995597;28;20634;-77
2021/05/22 16:40:36;;;;;;;3.27;1.20;;;13.80;78.80;;;;;;4995617;28;20265;-77
2021/05/22 16:43:01;;;;;;;3.70;0.90;;;13.40;79.90;;;;;;4995941;28;20181;-77
2021/05/22 16:45:27;;;;;;;1.40;0.70;;;13.40;79.20;;;;;;4998422;28;20249;-79
2021/05/22 16:47:52;;;;;;;1.73;0.83;;;13.40;80.90;;;;;;5000558;28;20201;-77
2021/05/22 16:50:19;;;;;;;2.43;1.10;;;13.40;81.30;;;;;;4997289;28;20184;-77
2021/05/22 16:52:45;;;;;;;3.77;1.03;;;13.50;80.10;;;;;;5010511;28;20263;-77
2021/05/22 16:55:12;;;;;;;5.23;1.07;;;13.70;81.10;;;;;;5001216;28;20924;-77
2021/05/22 16:57:37;;;;;;;2.23;0.90;;;13.80;81.10;;;;;;5006962;28;20215;-78
2021/05/22 17:00:06;;;;;;;2.40;0.90;;;13.90;80.90;;;;;;5006047;28;20459;-77
2021/05/22 17:02:31;;;;;;;3.23;0.80;;;14.00;80.90;;;;;;5002300;28;20177;-77
2021/05/22 17:04:57;;;;;;;2.53;1.10;;;13.90;78.60;;;;;;4998656;28;20978;-77
2021/05/22 17:07:22;;;;;;;1.93;1.20;;;13.60;80.70;;;;;;4993864;28;20283;-78